Time;durP1;ratioP1;P1;durP2;ratioP2;P2;SDS_P1;SDS_P2;PMS_P1;PMS_P2;Temp;Humidity;BMP_temperature;BMP_pressure;BME280_temperature;BME280_humidity;BME280_pressure;Samples;Min_cycle;Max_cycle;Signal;HPM_P1;HPM_P2
2023/05/06 00:00:17;;;;;;;1.50;1.10;;;;;;;;;;5044659;28;20203;-62
2023/05/06 00:02:46;;;;;;;1.30;1.20;;;;;;;;;;5048498;28;20222;-61
2023/05/06 00:05:13;;;;;;;2.45;1.23;;;;;;;;;;5049495;28;20203;-61
2023/05/06 00:07:40;;;;;;;2.60;1.10;;;;;;;;;;5048945;28;20227;-62
2023/05/06 00:10:08;;;;;;;2.08;1.30;;;;;;;;;;5047242;28;20235;-62
2023/05/06 00:12:35;;;;;;;1.38;1.27;;;;;;;;;;5047151;28;20227;-62
2023/05/06 00:15:02;;;;;;;1.17;1.00;;;;;;;;;;5047559;28;20214;-62
2023/05/06 00:17:29;;;;;;;2.28;1.20;;;;;;;;;;5049217;28;20207;-62
2023/05/06 00:19:58;;;;;;;2.22;1.30;;;;;;;;;;5046039;28;20223;-62
2023/05/06 00:22:25;;;;;;;1.50;1.30;;;;;;;;;;5050456;28;20223;-62
2023/05/06 00:24:52;;;;;;;2.53;1.60;;;;;;;;;;5046748;28;20207;-62
2023/05/06 00:27:19;;;;;;;1.67;1.45;;;;;;;;;;5050018;28;20200;-62
2023/05/06 00:29:46;;;;;;;1.17;1.10;;;;;;;;;;5051549;28;20230;-62
2023/05/06 00:32:13;;;;;;;1.20;1.10;;;;;;;;;;5048844;28;20203;-62
2023/05/06 00:34:40;;;;;;;2.95;1.30;;;;;;;;;;5050668;28;20204;-62
2023/05/06 00:37:09;;;;;;;3.13;1.50;;;;;;;;;;5048911;28;20195;-62
2023/05/06 00:39:36;;;;;;;1.88;1.33;;;;;;;;;;5048440;28;20214;-62
2023/05/06 00:42:03;;;;;;;2.03;1.50;;;;;;;;;;5051647;28;20227;-62
2023/05/06 00:44:30;;;;;;;2.47;1.42;;;;;;;;;;5047247;28;20200;-62
2023/05/06 00:46:58;;;;;;;2.60;1.60;;;;;;;;;;5050581;28;20294;-62
2023/05/06 00:49:25;;;;;;;2.47;1.58;;;;;;;;;;5047223;28;20203;-62
2023/05/06 00:51:52;;;;;;;2.28;1.25;;;;;;;;;;5049184;28;20210;-62
2023/05/06 00:54:21;;;;;;;1.60;1.40;;;;;;;;;;5048246;28;20208;-62
2023/05/06 00:56:48;;;;;;;1.35;1.20;;;;;;;;;;5047215;28;20205;-62
2023/05/06 00:59:15;;;;;;;1.60;1.20;;;;;;;;;;5049736;28;20215;-62
2023/05/06 01:01:42;;;;;;;1.83;1.50;;;;;;;;;;5048038;28;20242;-62
2023/05/06 01:04:10;;;;;;;1.70;1.60;;;;;;;;;;5050313;28;20203;-61
2023/05/06 01:06:39;;;;;;;1.98;1.30;;;;;;;;;;5049278;28;20217;-62
2023/05/06 01:09:10;;;;;;;2.05;1.30;;;;;;;;;;5046699;28;20203;-62
2023/05/06 01:11:42;;;;;;;1.27;1.00;;;;;;;;;;5045367;28;20227;-62
2023/05/06 01:14:13;;;;;;;1.15;1.00;;;;;;;;;;5048041;28;20206;-62
2023/05/06 01:16:41;;;;;;;1.13;1.10;;;;;;;;;;5049597;28;20200;-62
2023/05/06 01:19:10;;;;;;;1.83;1.00;;;;;;;;;;5049443;28;20215;-62
2023/05/06 01:21:40;;;;;;;1.83;1.08;;;;;;;;;;5045540;28;20207;-62
2023/05/06 01:24:09;;;;;;;1.45;1.20;;;;;;;;;;5047591;28;20207;-62
2023/05/06 01:26:36;;;;;;;1.85;1.27;;;;;;;;;;5047226;28;20208;-62
2023/05/06 01:29:03;;;;;;;2.17;1.45;;;;;;;;;;5047416;28;20199;-62
2023/05/06 01:31:33;;;;;;;2.92;1.65;;;;;;;;;;5048473;28;20223;-62
2023/05/06 01:34:06;;;;;;;2.45;1.60;;;;;;;;;;5047704;28;20199;-62
2023/05/06 01:36:34;;;;;;;1.65;1.55;;;;;;;;;;5048975;28;20261;-62
2023/05/06 01:39:05;;;;;;;2.58;1.42;;;;;;;;;;5050103;28;20207;-62
2023/05/06 01:41:34;;;;;;;1.45;1.35;;;;;;;;;;5047168;28;20208;-62
2023/05/06 01:44:02;;;;;;;1.58;1.40;;;;;;;;;;5047811;28;20231;-62
2023/05/06 01:46:29;;;;;;;1.50;1.40;;;;;;;;;;5045084;28;20207;-62
2023/05/06 01:48:57;;;;;;;1.65;1.35;;;;;;;;;;5046994;28;20207;-62
2023/05/06 01:51:25;;;;;;;1.83;1.20;;;;;;;;;;5045918;28;20215;-62
2023/05/06 01:53:52;;;;;;;1.15;1.05;;;;;;;;;;5048130;28;20203;-62
2023/05/06 01:56:19;;;;;;;1.13;1.13;;;;;;;;;;5047137;28;20206;-62
2023/05/06 01:58:48;;;;;;;1.38;1.20;;;;;;;;;;5046097;28;20208;-62
2023/05/06 02:01:15;;;;;;;2.08;1.40;;;;;;;;;;5044064;28;20230;-62
2023/05/06 02:03:42;;;;;;;1.90;1.50;;;;;;;;;;5049197;28;20223;-62
2023/05/06 02:06:09;;;;;;;1.65;1.52;;;;;;;;;;5047308;28;20203;-62
2023/05/06 02:08:36;;;;;;;3.40;1.50;;;;;;;;;;5048849;28;20203;-62
2023/05/06 02:11:03;;;;;;;2.00;1.50;;;;;;;;;;5048303;28;20244;-62
2023/05/06 02:13:30;;;;;;;1.92;1.63;;;;;;;;;;5046895;28;20192;-62
2023/05/06 02:15:59;;;;;;;1.67;1.45;;;;;;;;;;5049325;28;20211;-62
2023/05/06 02:18:26;;;;;;;1.90;1.30;;;;;;;;;;5046212;28;20204;-62
2023/05/06 02:20:53;;;;;;;1.63;1.30;;;;;;;;;;5047291;28;20321;-62
2023/05/06 02:23:20;;;;;;;2.88;1.10;;;;;;;;;;5047892;28;20223;-62
2023/05/06 02:25:47;;;;;;;1.45;1.25;;;;;;;;;;5047262;28;20202;-62
2023/05/06 02:28:14;;;;;;;1.35;1.20;;;;;;;;;;5047928;28;20207;-62
2023/05/06 02:30:41;;;;;;;1.77;1.30;;;;;;;;;;5048609;28;20207;-62
2023/05/06 02:33:10;;;;;;;2.15;1.20;;;;;;;;;;5050190;28;20203;-62
2023/05/06 02:35:37;;;;;;;1.63;1.38;;;;;;;;;;5046565;28;20223;-62
2023/05/06 02:38:04;;;;;;;1.50;1.40;;;;;;;;;;5048924;28;20213;-62
2023/05/06 02:40:31;;;;;;;1.73;1.15;;;;;;;;;;5045238;28;20236;-62
2023/05/06 02:42:58;;;;;;;1.35;1.25;;;;;;;;;;5044326;28;20219;-62
2023/05/06 02:45:25;;;;;;;1.30;1.20;;;;;;;;;;5045431;28;20203;-62
2023/05/06 02:47:52;;;;;;;3.15;1.20;;;;;;;;;;5047690;28;20203;-63
2023/05/06 02:50:21;;;;;;;1.55;1.20;;;;;;;;;;5044986;28;20211;-62
2023/05/06 02:52:48;;;;;;;2.05;1.30;;;;;;;;;;5045420;28;20211;-62
2023/05/06 02:55:15;;;;;;;4.03;1.50;;;;;;;;;;5046507;28;20203;-62
2023/05/06 02:57:42;;;;;;;1.75;1.38;;;;;;;;;;5045684;28;20206;-62
2023/05/06 03:00:11;;;;;;;2.33;1.30;;;;;;;;;;5045239;28;20214;-62
2023/05/06 03:02:38;;;;;;;1.52;1.30;;;;;;;;;;5045058;28;20219;-62
2023/05/06 03:05:06;;;;;;;2.10;1.30;;;;;;;;;;5045595;28;20222;-62
2023/05/06 03:07:36;;;;;;;1.55;1.20;;;;;;;;;;5044052;28;20321;-62
2023/05/06 03:10:04;;;;;;;1.25;1.17;;;;;;;;;;5044794;28;20235;-63
2023/05/06 03:12:31;;;;;;;1.20;1.10;;;;;;;;;;5046574;28;20206;-62
2023/05/06 03:14:58;;;;;;;1.42;1.20;;;;;;;;;;5044847;28;20211;-62
2023/05/06 03:17:25;;;;;;;1.48;1.23;;;;;;;;;;5045828;28;20207;-62
2023/05/06 03:19:52;;;;;;;1.02;1.02;;;;;;;;;;5047094;28;20213;-62
2023/05/06 03:22:19;;;;;;;1.70;1.20;;;;;;;;;;5046652;28;20206;-62
2023/05/06 03:24:47;;;;;;;1.83;1.27;;;;;;;;;;5047393;28;20200;-62
2023/05/06 03:27:15;;;;;;;1.25;1.15;;;;;;;;;;5047874;28;20204;-63
2023/05/06 03:29:42;;;;;;;1.33;1.20;;;;;;;;;;5045425;28;20215;-62
2023/05/06 03:32:09;;;;;;;2.35;1.40;;;;;;;;;;5048456;28;20214;-62
2023/05/06 03:34:36;;;;;;;1.67;1.58;;;;;;;;;;5041287;28;20211;-62
2023/05/06 03:37:03;;;;;;;1.40;1.30;;;;;;;;;;5044391;28;20207;-62
2023/05/06 03:39:30;;;;;;;4.53;1.50;;;;;;;;;;5048279;28;20200;-63
2023/05/06 03:41:59;;;;;;;2.15;1.50;;;;;;;;;;5047919;28;20203;-63
2023/05/06 03:44:26;;;;;;;2.38;1.40;;;;;;;;;;5046512;28;20227;-63
2023/05/06 03:46:53;;;;;;;1.17;1.17;;;;;;;;;;5044770;28;20208;-63
2023/05/06 03:49:20;;;;;;;1.48;1.38;;;;;;;;;;5043437;28;20230;-63
2023/05/06 03:51:47;;;;;;;1.63;1.52;;;;;;;;;;5052436;28;20199;-62
2023/05/06 03:54:14;;;;;;;2.60;1.42;;;;;;;;;;5050286;28;20195;-63
2023/05/06 03:56:41;;;;;;;1.97;1.63;;;;;;;;;;5046523;28;20200;-63
2023/05/06 03:59:10;;;;;;;2.30;1.50;;;;;;;;;;5047799;28;20208;-63
2023/05/06 04:01:37;;;;;;;1.65;1.55;;;;;;;;;;5047132;28;20203;-63
2023/05/06 04:04:04;;;;;;;1.55;1.40;;;;;;;;;;5051006;28;20228;-63
2023/05/06 04:06:31;;;;;;;1.40;1.30;;;;;;;;;;5045785;28;20203;-62
2023/05/06 04:08:58;;;;;;;1.70;1.60;;;;;;;;;;5040377;28;20214;-62
2023/05/06 04:11:25;;;;;;;2.47;1.43;;;;;;;;;;5043826;28;20238;-63
2023/05/06 04:13:52;;;;;;;2.00;1.40;;;;;;;;;;5042955;28;20203;-62
2023/05/06 04:16:21;;;;;;;1.50;1.40;;;;;;;;;;5043740;28;20211;-63
2023/05/06 04:18:50;;;;;;;1.60;1.50;;;;;;;;;;5047393;28;20199;-62
2023/05/06 04:21:17;;;;;;;1.52;1.42;;;;;;;;;;5042860;28;20227;-63
2023/05/06 04:23:44;;;;;;;4.30;1.52;;;;;;;;;;5043190;28;20223;-63
2023/05/06 04:26:11;;;;;;;1.40;1.17;;;;;;;;;;5046694;28;20200;-63
2023/05/06 04:28:38;;;;;;;1.40;1.30;;;;;;;;;;5044822;28;20218;-62
2023/05/06 04:31:07;;;;;;;1.67;1.50;;;;;;;;;;5046741;28;20207;-63
2023/05/06 04:33:36;;;;;;;1.60;1.50;;;;;;;;;;5046621;28;20195;-64
2023/05/06 04:36:03;;;;;;;1.60;1.50;;;;;;;;;;5042996;28;20206;-62
2023/05/06 04:38:30;;;;;;;2.50;1.73;;;;;;;;;;5045352;28;20196;-62
2023/05/06 04:40:58;;;;;;;1.50;1.40;;;;;;;;;;5046823;28;20199;-62
2023/05/06 04:43:26;;;;;;;2.27;1.50;;;;;;;;;;5050939;28;20218;-62
2023/05/06 04:45:54;;;;;;;2.73;1.83;;;;;;;;;;5038581;28;20193;-62
2023/05/06 04:48:22;;;;;;;2.15;1.40;;;;;;;;;;5053003;28;20200;-62
2023/05/06 04:50:50;;;;;;;2.15;1.77;;;;;;;;;;5050739;28;20204;-62
2023/05/06 04:53:17;;;;;;;2.35;1.60;;;;;;;;;;5048528;28;20198;-62
2023/05/06 04:55:44;;;;;;;1.67;1.58;;;;;;;;;;5048405;28;20199;-62
2023/05/06 04:58:12;;;;;;;3.40;1.75;;;;;;;;;;5048963;28;20203;-62
2023/05/06 05:00:39;;;;;;;1.98;1.40;;;;;;;;;;5046585;28;20200;-62
2023/05/06 05:03:06;;;;;;;1.85;1.67;;;;;;;;;;5051554;28;20226;-62
2023/05/06 05:05:33;;;;;;;1.52;1.42;;;;;;;;;;5052967;28;20214;-62
2023/05/06 05:08:02;;;;;;;1.58;1.48;;;;;;;;;;5051141;28;20233;-62
2023/05/06 05:10:29;;;;;;;2.53;1.40;;;;;;;;;;5055767;28;20258;-62
2023/05/06 05:12:56;;;;;;;2.38;1.88;;;;;;;;;;5048244;28;20191;-62
2023/05/06 05:15:23;;;;;;;2.03;1.42;;;;;;;;;;5053350;28;20219;-62
2023/05/06 05:17:50;;;;;;;1.60;1.50;;;;;;;;;;5051872;28;20208;-62
2023/05/06 05:20:18;;;;;;;2.00;1.60;;;;;;;;;;5048551;28;20196;-62
2023/05/06 05:22:45;;;;;;;1.80;1.70;;;;;;;;;;5050494;28;20216;-62
2023/05/06 05:25:13;;;;;;;1.75;1.65;;;;;;;;;;5052789;28;20265;-62
2023/05/06 05:27:41;;;;;;;1.70;1.60;;;;;;;;;;5052268;28;20199;-62
2023/05/06 05:30:09;;;;;;;2.60;1.70;;;;;;;;;;5052251;28;20207;-62
2023/05/06 05:32:36;;;;;;;2.75;2.15;;;;;;;;;;5051330;28;20237;-62
2023/05/06 05:35:03;;;;;;;2.75;1.80;;;;;;;;;;5048635;28;20191;-62
2023/05/06 05:37:31;;;;;;;2.67;1.85;;;;;;;;;;5045278;28;20200;-62
2023/05/06 05:39:58;;;;;;;1.70;1.60;;;;;;;;;;5049700;28;20207;-62
2023/05/06 05:42:29;;;;;;;2.80;1.73;;;;;;;;;;5049493;28;20290;-62
2023/05/06 05:44:56;;;;;;;1.95;1.63;;;;;;;;;;5046040;28;20218;-63
2023/05/06 05:47:23;;;;;;;2.40;2.17;;;;;;;;;;5050462;28;20199;-63
2023/05/06 05:49:51;;;;;;;3.35;2.58;;;;;;;;;;5047457;28;20203;-63
2023/05/06 05:52:18;;;;;;;2.63;2.42;;;;;;;;;;5044274;28;20214;-63
2023/05/06 05:54:45;;;;;;;3.47;2.63;;;;;;;;;;5045559;28;20187;-63
2023/05/06 05:57:12;;;;;;;2.70;2.50;;;;;;;;;;5047358;28;20199;-63
2023/05/06 05:59:40;;;;;;;4.20;2.47;;;;;;;;;;5041550;28;20200;-63
2023/05/06 06:02:07;;;;;;;2.88;2.67;;;;;;;;;;5045830;28;20204;-63
2023/05/06 06:04:35;;;;;;;2.72;2.38;;;;;;;;;;5047065;28;20234;-63
2023/05/06 06:07:02;;;;;;;2.70;2.20;;;;;;;;;;5049612;28;20210;-63
2023/05/06 06:09:29;;;;;;;3.70;2.35;;;;;;;;;;5045372;28;20199;-63
2023/05/06 06:11:57;;;;;;;2.58;2.38;;;;;;;;;;5046770;28;20275;-63
2023/05/06 06:14:24;;;;;;;1.80;1.70;;;;;;;;;;5041408;28;20203;-63
2023/05/06 06:16:52;;;;;;;1.90;1.80;;;;;;;;;;5043552;28;20210;-62
2023/05/06 06:19:20;;;;;;;3.97;1.95;;;;;;;;;;5047767;28;20222;-63
2023/05/06 06:21:47;;;;;;;2.67;2.03;;;;;;;;;;5047310;28;20201;-62
2023/05/06 06:24:14;;;;;;;1.77;1.67;;;;;;;;;;5047403;28;20223;-63
2023/05/06 06:26:41;;;;;;;2.05;1.80;;;;;;;;;;5048521;28;20234;-63
2023/05/06 06:29:08;;;;;;;1.92;1.83;;;;;;;;;;5045712;28;20203;-63
2023/05/06 06:31:35;;;;;;;2.60;2.40;;;;;;;;;;5042418;28;20230;-62
2023/05/06 06:34:05;;;;;;;2.28;1.92;;;;;;;;;;5046782;28;20235;-62
2023/05/06 06:36:32;;;;;;;2.83;1.70;;;;;;;;;;5048113;28;20207;-62
2023/05/06 06:38:59;;;;;;;3.08;1.80;;;;;;;;;;5047274;28;20219;-62
2023/05/06 06:41:27;;;;;;;2.17;1.80;;;;;;;;;;5048159;28;20206;-62
2023/05/06 06:43:54;;;;;;;1.77;1.65;;;;;;;;;;5044867;28;20215;-62
2023/05/06 06:46:21;;;;;;;2.20;1.73;;;;;;;;;;5045261;28;20310;-62
2023/05/06 06:48:48;;;;;;;2.10;1.77;;;;;;;;;;5043890;28;20206;-62
2023/05/06 06:51:17;;;;;;;2.33;1.88;;;;;;;;;;5042071;28;20203;-62
2023/05/06 06:53:47;;;;;;;1.80;1.70;;;;;;;;;;5045441;28;20223;-63
2023/05/06 06:56:14;;;;;;;1.88;1.70;;;;;;;;;;5048241;28;20215;-62
2023/05/06 06:58:42;;;;;;;1.90;1.80;;;;;;;;;;5044083;28;20203;-62
2023/05/06 07:01:10;;;;;;;1.73;1.63;;;;;;;;;;5047225;28;20214;-62
2023/05/06 07:03:38;;;;;;;2.72;1.70;;;;;;;;;;5042717;28;20214;-63
2023/05/06 07:06:05;;;;;;;1.70;1.60;;;;;;;;;;5044010;28;20216;-62
2023/05/06 07:08:33;;;;;;;2.10;1.83;;;;;;;;;;5051644;28;20204;-62
2023/05/06 07:11:01;;;;;;;4.30;1.98;;;;;;;;;;5046240;28;20242;-62
2023/05/06 07:13:28;;;;;;;2.28;1.77;;;;;;;;;;5045816;28;20211;-62
2023/05/06 07:15:57;;;;;;;2.55;1.60;;;;;;;;;;5047989;28;20207;-63
2023/05/06 07:18:27;;;;;;;2.08;1.60;;;;;;;;;;5050007;28;20362;-63
2023/05/06 07:20:54;;;;;;;1.73;1.63;;;;;;;;;;5052972;28;20206;-73
2023/05/06 07:23:21;;;;;;;2.45;1.70;;;;;;;;;;5056047;28;20218;-73
2023/05/06 07:25:49;;;;;;;2.58;1.95;;;;;;;;;;5054533;28;20226;-72
2023/05/06 07:28:17;;;;;;;2.30;2.10;;;;;;;;;;5053153;28;20222;-73
2023/05/06 07:30:44;;;;;;;2.10;1.55;;;;;;;;;;5052377;28;20200;-73
2023/05/06 07:33:11;;;;;;;2.55;1.70;;;;;;;;;;5053947;28;20220;-72
2023/05/06 07:35:38;;;;;;;2.00;1.83;;;;;;;;;;5054226;28;20203;-72
2023/05/06 07:38:05;;;;;;;1.75;1.40;;;;;;;;;;5054062;28;20220;-72
2023/05/06 07:40:33;;;;;;;3.63;1.60;;;;;;;;;;5050881;28;20219;-72
2023/05/06 07:43:00;;;;;;;1.95;1.60;;;;;;;;;;5052666;28;20229;-71
2023/05/06 07:45:28;;;;;;;3.70;1.70;;;;;;;;;;5051648;28;20235;-71
2023/05/06 07:47:55;;;;;;;2.72;1.83;;;;;;;;;;5053701;28;20219;-71
2023/05/06 07:50:22;;;;;;;1.85;1.70;;;;;;;;;;5054026;28;20211;-71
2023/05/06 07:52:50;;;;;;;1.95;1.80;;;;;;;;;;5052734;28;20234;-72
2023/05/06 07:55:17;;;;;;;1.67;1.58;;;;;;;;;;5052537;28;20204;-71
2023/05/06 07:57:44;;;;;;;2.45;1.95;;;;;;;;;;5048142;28;20211;-71
2023/05/06 08:00:11;;;;;;;3.88;2.00;;;;;;;;;;5052466;28;20210;-72
2023/05/06 08:02:42;;;;;;;1.90;1.70;;;;;;;;;;5052301;28;20203;-72
2023/05/06 08:05:10;;;;;;;2.55;1.90;;;;;;;;;;5050700;28;20223;-71
2023/05/06 08:07:37;;;;;;;4.22;2.03;;;;;;;;;;5052443;28;20199;-71
2023/05/06 08:10:04;;;;;;;2.88;1.90;;;;;;;;;;5052860;28;20239;-71
2023/05/06 08:12:32;;;;;;;2.47;1.63;;;;;;;;;;5053237;28;20220;-72
2023/05/06 08:14:59;;;;;;;1.80;1.70;;;;;;;;;;5048626;28;20199;-72
2023/05/06 08:17:26;;;;;;;3.78;2.13;;;;;;;;;;5052485;28;20203;-71
2023/05/06 08:19:55;;;;;;;3.17;1.70;;;;;;;;;;5053763;28;20215;-71
2023/05/06 08:22:22;;;;;;;2.08;1.88;;;;;;;;;;5053251;28;20245;-72
2023/05/06 08:24:49;;;;;;;1.95;1.77;;;;;;;;;;5052922;28;20226;-71
2023/05/06 08:27:16;;;;;;;3.22;1.70;;;;;;;;;;5052640;28;20214;-70
2023/05/06 08:29:43;;;;;;;2.03;1.83;;;;;;;;;;5051707;28;20203;-70
2023/05/06 08:32:10;;;;;;;3.75;1.67;;;;;;;;;;5052438;28;20211;-70
2023/05/06 08:34:37;;;;;;;4.03;1.85;;;;;;;;;;5052403;28;20211;-70
2023/05/06 08:37:06;;;;;;;2.63;1.70;;;;;;;;;;5049596;28;20207;-71
2023/05/06 08:39:33;;;;;;;4.90;1.85;;;;;;;;;;5052162;28;20219;-70
2023/05/06 08:42:01;;;;;;;3.38;1.90;;;;;;;;;;5052854;28;20211;-71
2023/05/06 08:44:29;;;;;;;2.35;1.70;;;;;;;;;;5052750;28;20238;-71
2023/05/06 08:46:56;;;;;;;3.15;2.10;;;;;;;;;;5049657;28;20267;-70
2023/05/06 08:49:23;;;;;;;2.30;1.88;;;;;;;;;;5051561;28;20215;-71
2023/05/06 08:51:51;;;;;;;2.28;1.70;;;;;;;;;;5052693;28;20222;-70
2023/05/06 08:54:20;;;;;;;4.45;1.70;;;;;;;;;;5052581;28;20207;-70
2023/05/06 08:56:48;;;;;;;3.42;2.05;;;;;;;;;;5049805;28;20210;-71
2023/05/06 08:59:15;;;;;;;4.00;1.80;;;;;;;;;;5052307;28;20302;-71
2023/05/06 09:01:43;;;;;;;3.15;1.90;;;;;;;;;;5052701;28;20212;-70
2023/05/06 09:04:10;;;;;;;3.60;1.90;;;;;;;;;;5052467;28;20204;-71
2023/05/06 09:06:37;;;;;;;3.17;2.00;;;;;;;;;;5049313;28;20196;-71
2023/05/06 09:09:05;;;;;;;2.38;1.75;;;;;;;;;;5050396;28;20223;-70
2023/05/06 09:11:33;;;;;;;2.20;1.70;;;;;;;;;;5051173;28;20305;-70
2023/05/06 09:14:18;;;;;;;2.13;1.83;;;;;;;;;;5052080;28;20222;-70
2023/05/06 09:16:46;;;;;;;1.90;1.80;;;;;;;;;;5051179;28;20191;-70
2023/05/06 09:19:14;;;;;;;1.88;1.70;;;;;;;;;;5052084;28;20214;-70
2023/05/06 09:21:42;;;;;;;2.25;1.63;;;;;;;;;;5051745;28;20215;-70
2023/05/06 09:24:10;;;;;;;2.00;1.80;;;;;;;;;;5051589;28;20211;-70
2023/05/06 09:26:40;;;;;;;4.28;2.03;;;;;;;;;;5042920;28;20227;-70
2023/05/06 09:29:07;;;;;;;3.60;1.73;;;;;;;;;;5050089;28;20218;-70
2023/05/06 09:31:40;;;;;;;2.47;1.90;;;;;;;;;;5049153;28;20211;-70
2023/05/06 09:34:07;;;;;;;2.00;1.80;;;;;;;;;;5052051;28;20206;-70
2023/05/06 09:36:34;;;;;;;2.25;1.80;;;;;;;;;;5051989;28;20202;-70
2023/05/06 09:39:01;;;;;;;2.00;1.85;;;;;;;;;;5043539;28;20287;-70
2023/05/06 09:41:29;;;;;;;2.40;1.58;;;;;;;;;;5052428;28;20218;-70
2023/05/06 09:43:58;;;;;;;1.77;1.50;;;;;;;;;;5052473;28;20233;-70
2023/05/06 09:46:26;;;;;;;4.97;3.80;;;;;;;;;;5052257;28;20218;-70
2023/05/06 09:48:53;;;;;;;2.95;1.90;;;;;;;;;;5051863;28;20202;-70
2023/05/06 09:51:21;;;;;;;5.13;2.00;;;;;;;;;;5050393;28;20207;-70
2023/05/06 09:53:48;;;;;;;1.83;1.50;;;;;;;;;;5049464;28;20211;-70
2023/05/06 09:56:15;;;;;;;2.85;2.05;;;;;;;;;;5049431;28;20203;-70
2023/05/06 09:58:43;;;;;;;3.88;1.77;;;;;;;;;;5049023;28;20199;-70
2023/05/06 10:01:13;;;;;;;1.95;1.70;;;;;;;;;;5051640;28;20218;-70
2023/05/06 10:03:40;;;;;;;3.47;2.05;;;;;;;;;;5049254;28;20211;-70
2023/05/06 10:06:10;;;;;;;2.35;1.60;;;;;;;;;;5048690;28;20248;-70
2023/05/06 10:08:37;;;;;;;2.72;2.00;;;;;;;;;;5049257;28;20223;-70
2023/05/06 10:11:05;;;;;;;1.60;1.50;;;;;;;;;;5049393;28;20247;-70
2023/05/06 10:13:33;;;;;;;1.77;1.52;;;;;;;;;;5049041;28;20211;-71
2023/05/06 10:16:01;;;;;;;2.63;1.42;;;;;;;;;;5050074;28;20199;-70
2023/05/06 10:18:30;;;;;;;1.63;1.20;;;;;;;;;;5050823;28;20203;-71
2023/05/06 10:21:00;;;;;;;1.48;1.38;;;;;;;;;;5051701;28;20230;-70
2023/05/06 10:23:42;;;;;;;3.30;1.40;;;;;;;;;;5050548;28;20203;-71
2023/05/06 10:26:11;;;;;;;3.30;1.48;;;;;;;;;;5048395;28;20219;-71
2023/05/06 10:28:40;;;;;;;1.40;1.10;;;;;;;;;;5050482;28;20203;-71
2023/05/06 10:31:11;;;;;;;1.55;1.17;;;;;;;;;;5042536;28;20207;-71
2023/05/06 10:33:40;;;;;;;1.25;1.15;;;;;;;;;;5048469;28;20199;-71
2023/05/06 10:36:12;;;;;;;1.52;1.17;;;;;;;;;;5051453;28;20206;-70
2023/05/06 10:38:41;;;;;;;2.67;1.48;;;;;;;;;;5052905;28;20207;-70
2023/05/06 10:41:09;;;;;;;1.33;1.23;;;;;;;;;;5053668;28;20195;-69
2023/05/06 10:43:40;;;;;;;3.97;1.50;;;;;;;;;;5055846;28;20200;-69
2023/05/06 10:46:07;;;;;;;1.42;1.10;;;;;;;;;;5056040;28;20216;-69
2023/05/06 10:48:35;;;;;;;1.65;1.20;;;;;;;;;;5057073;28;20198;-69
2023/05/06 10:51:21;;;;;;;2.55;1.20;;;;;;;;;;5054265;28;20229;-71
2023/05/06 10:54:02;;;;;;;1.10;1.00;;;;;;;;;;5056116;28;20217;-71
2023/05/06 10:56:30;;;;;;;1.55;1.15;;;;;;;;;;5051398;28;20218;-71
2023/05/06 10:58:58;;;;;;;2.15;1.30;;;;;;;;;;5056046;28;20211;-70
2023/05/06 11:01:27;;;;;;;1.85;1.20;;;;;;;;;;5054455;28;20199;-69
2023/05/06 11:03:54;;;;;;;0.90;0.80;;;;;;;;;;5054663;28;20211;-69
2023/05/06 11:06:34;;;;;;;2.25;1.20;;;;;;;;;;5055300;28;20228;-69
2023/05/06 11:09:03;;;;;;;2.75;1.25;;;;;;;;;;5054708;28;20204;-69
2023/05/06 11:11:50;;;;;;;2.70;1.00;;;;;;;;;;5053584;28;20235;-70
2023/05/06 11:14:25;;;;;;;2.30;1.00;;;;;;;;;;5050838;28;20237;-70
2023/05/06 11:16:53;;;;;;;0.95;0.85;;;;;;;;;;5051098;28;20199;-69
2023/05/06 11:19:22;;;;;;;2.10;1.20;;;;;;;;;;5054299;28;20199;-69
2023/05/06 11:21:49;;;;;;;1.00;0.90;;;;;;;;;;5041479;28;20257;-70
2023/05/06 11:24:23;;;;;;;2.42;0.90;;;;;;;;;;5055407;28;20207;-69
2023/05/06 11:26:50;;;;;;;1.00;1.00;;;;;;;;;;5054392;28;20238;-69
2023/05/06 11:29:17;;;;;;;1.20;1.00;;;;;;;;;;5053891;28;20200;-70
2023/05/06 11:31:45;;;;;;;1.45;1.10;;;;;;;;;;5051768;28;20206;-70
2023/05/06 11:34:14;;;;;;;1.10;0.98;;;;;;;;;;5053691;28;20207;-61
2023/05/06 11:36:48;;;;;;;2.35;1.67;;;;;;;;;;5053866;28;20210;-62
2023/05/06 11:39:15;;;;;;;1.00;1.00;;;;;;;;;;5050613;28;20202;-62
2023/05/06 11:41:43;;;;;;;1.95;1.10;;;;;;;;;;5053169;28;20222;-61
2023/05/06 11:44:13;;;;;;;1.17;1.00;;;;;;;;;;5052223;28;20211;-62
2023/05/06 11:46:40;;;;;;;1.10;1.00;;;;;;;;;;5052702;28;20239;-62
2023/05/06 11:49:07;;;;;;;1.25;1.15;;;;;;;;;;5050690;28;20204;-62
2023/05/06 11:51:34;;;;;;;1.45;1.30;;;;;;;;;;5053354;28;20223;-62
2023/05/06 11:54:06;;;;;;;1.60;1.30;;;;;;;;;;5050888;28;20214;-61
2023/05/06 11:56:45;;;;;;;2.10;1.20;;;;;;;;;;5051955;28;20258;-62
2023/05/06 11:59:12;;;;;;;1.65;1.15;;;;;;;;;;5051301;28;20211;-61
2023/05/06 12:01:41;;;;;;;1.30;1.20;;;;;;;;;;5046006;28;20231;-62
2023/05/06 12:04:08;;;;;;;1.85;1.20;;;;;;;;;;5045344;28;20215;-62
2023/05/06 12:06:36;;;;;;;1.50;1.02;;;;;;;;;;5046710;28;20219;-61
2023/05/06 12:09:04;;;;;;;2.15;1.27;;;;;;;;;;5042067;28;20208;-61
2023/05/06 12:11:32;;;;;;;3.13;0.90;;;;;;;;;;5051178;28;20357;-61
2023/05/06 12:14:00;;;;;;;1.52;1.10;;;;;;;;;;5048563;28;20269;-61
2023/05/06 12:16:27;;;;;;;1.52;1.10;;;;;;;;;;5048120;28;20203;-61
2023/05/06 12:18:55;;;;;;;2.20;0.95;;;;;;;;;;5050373;28;20207;-62
2023/05/06 12:21:23;;;;;;;1.30;1.10;;;;;;;;;;5049424;28;20218;-62
2023/05/06 12:23:51;;;;;;;0.93;0.93;;;;;;;;;;5048935;28;20207;-61
2023/05/06 12:26:19;;;;;;;1.20;1.05;;;;;;;;;;5044036;28;20224;-62
2023/05/06 12:28:46;;;;;;;2.10;1.08;;;;;;;;;;5041944;28;20203;-62
2023/05/06 12:31:21;;;;;;;2.05;1.00;;;;;;;;;;5049820;28;20210;-61
2023/05/06 12:33:49;;;;;;;1.50;1.20;;;;;;;;;;5044635;28;20203;-61
2023/05/06 12:36:16;;;;;;;1.85;1.10;;;;;;;;;;5042587;28;20215;-61
2023/05/06 12:38:53;;;;;;;1.58;1.02;;;;;;;;;;5048395;28;20204;-62
2023/05/06 12:41:20;;;;;;;1.27;0.90;;;;;;;;;;5045501;28;20206;-61
2023/05/06 12:43:47;;;;;;;1.23;1.10;;;;;;;;;;5045604;28;20203;-61
2023/05/06 12:46:15;;;;;;;1.50;0.90;;;;;;;;;;5048278;28;20226;-61
2023/05/06 12:48:56;;;;;;;1.13;1.00;;;;;;;;;;5049676;28;20204;-61
2023/05/06 12:51:23;;;;;;;0.85;0.85;;;;;;;;;;5052081;28;20260;-61
2023/05/06 12:53:50;;;;;;;4.03;0.90;;;;;;;;;;5051152;28;20238;-61
2023/05/06 12:56:17;;;;;;;1.27;0.90;;;;;;;;;;5045639;28;20206;-61
2023/05/06 12:58:44;;;;;;;1.55;1.17;;;;;;;;;;5044413;28;20219;-62
2023/05/06 13:01:11;;;;;;;2.65;1.00;;;;;;;;;;5046505;28;20275;-61
2023/05/06 13:03:39;;;;;;;6.93;1.33;;;;;;;;;;5048611;28;20227;-61
2023/05/06 13:06:08;;;;;;;1.70;1.10;;;;;;;;;;5043008;28;20231;-62
2023/05/06 13:08:35;;;;;;;1.02;1.00;;;;;;;;;;5054406;28;20199;-61
2023/05/06 13:11:03;;;;;;;2.17;0.90;;;;;;;;;;5050380;28;20239;-61
2023/05/06 13:13:30;;;;;;;1.75;1.08;;;;;;;;;;5040939;28;20195;-61
2023/05/06 13:15:57;;;;;;;1.70;1.15;;;;;;;;;;5047504;28;20204;-62
2023/05/06 13:18:24;;;;;;;4.53;1.58;;;;;;;;;;5045599;28;20203;-61
2023/05/06 13:20:51;;;;;;;1.00;1.00;;;;;;;;;;5046104;28;20204;-62
2023/05/06 13:23:20;;;;;;;0.80;0.80;;;;;;;;;;5050086;28;20199;-62
2023/05/06 13:25:47;;;;;;;1.10;1.00;;;;;;;;;;5048561;28;20231;-61
2023/05/06 13:28:14;;;;;;;1.45;0.80;;;;;;;;;;5049609;28;20207;-61
2023/05/06 13:30:41;;;;;;;1.10;0.93;;;;;;;;;;5045586;28;20204;-61
2023/05/06 13:33:08;;;;;;;1.13;0.98;;;;;;;;;;5044043;28;20200;-61
2023/05/06 13:35:35;;;;;;;1.65;1.08;;;;;;;;;;5047040;28;20211;-62
2023/05/06 13:38:02;;;;;;;1.95;0.93;;;;;;;;;;5042078;28;20219;-61
2023/05/06 13:40:31;;;;;;;2.15;1.10;;;;;;;;;;5044481;28;20210;-61
2023/05/06 13:42:58;;;;;;;1.42;1.17;;;;;;;;;;5048757;28;20243;-62
2023/05/06 13:45:25;;;;;;;1.70;1.20;;;;;;;;;;5043900;28;20208;-62
2023/05/06 13:47:52;;;;;;;1.58;0.90;;;;;;;;;;5041872;28;20208;-62
2023/05/06 13:50:19;;;;;;;1.40;0.90;;;;;;;;;;5043603;28;20207;-61
2023/05/06 13:52:46;;;;;;;2.97;1.10;;;;;;;;;;5039513;28;20237;-61
2023/05/06 13:55:14;;;;;;;1.48;0.88;;;;;;;;;;5039078;28;20203;-61
2023/05/06 13:57:42;;;;;;;1.35;0.80;;;;;;;;;;5051354;28;20211;-62
2023/05/06 14:00:10;;;;;;;1.10;1.00;;;;;;;;;;5048714;28;20207;-61
2023/05/06 14:02:37;;;;;;;1.23;1.10;;;;;;;;;;5049461;28;20207;-61
2023/05/06 14:05:04;;;;;;;1.17;0.90;;;;;;;;;;5050353;28;20218;-61
2023/05/06 14:07:31;;;;;;;1.20;0.90;;;;;;;;;;5049908;28;20246;-62
2023/05/06 14:09:59;;;;;;;3.25;1.00;;;;;;;;;;5049690;28;20241;-62
2023/05/06 14:12:26;;;;;;;2.15;1.58;;;;;;;;;;5046028;28;20249;-62
2023/05/06 14:14:54;;;;;;;1.98;1.00;;;;;;;;;;5050314;28;20210;-62
2023/05/06 14:17:21;;;;;;;0.80;0.80;;;;;;;;;;5049403;28;20306;-62
2023/05/06 14:19:48;;;;;;;1.52;0.88;;;;;;;;;;5047586;28;20214;-61
2023/05/06 14:22:15;;;;;;;2.60;0.80;;;;;;;;;;5050806;28;20199;-61
2023/05/06 14:24:42;;;;;;;0.60;0.60;;;;;;;;;;5049806;28;20276;-61
2023/05/06 14:27:10;;;;;;;2.05;0.93;;;;;;;;;;5047019;28;20230;-62
2023/05/06 14:29:37;;;;;;;1.83;1.05;;;;;;;;;;5048042;28;20234;-61
2023/05/06 14:32:05;;;;;;;1.38;1.02;;;;;;;;;;5049999;28;20356;-61
2023/05/06 14:34:35;;;;;;;0.98;0.88;;;;;;;;;;5050082;28;20215;-62
2023/05/06 14:37:02;;;;;;;2.38;0.90;;;;;;;;;;5050069;28;20425;-61
2023/05/06 14:39:29;;;;;;;1.27;1.00;;;;;;;;;;5048952;28;20214;-61
2023/05/06 14:41:56;;;;;;;1.30;1.20;;;;;;;;;;5047047;28;20207;-61
2023/05/06 14:44:23;;;;;;;1.55;1.02;;;;;;;;;;5048560;28;20206;-61
2023/05/06 14:46:50;;;;;;;1.75;1.20;;;;;;;;;;5047199;28;20242;-61